createdAt,value
2023-03-22T00:02:59.967Z,8.30
2023-03-22T00:06:13.657Z,8.29
2023-03-22T00:09:25.824Z,8.26
2023-03-22T00:12:37.886Z,8.28
2023-03-22T00:15:50.510Z,8.29
2023-03-22T00:19:05.063Z,8.15
2023-03-22T00:22:17.062Z,8.07
2023-03-22T00:25:29.840Z,8.05
2023-03-22T00:28:42.716Z,8.01
2023-03-22T00:31:56.133Z,8.04
2023-03-22T00:35:09.474Z,8.09
2023-03-22T00:38:27.309Z,8.05
2023-03-22T00:41:35.831Z,7.93
2023-03-22T00:44:47.936Z,7.88
2023-03-22T00:48:00.084Z,7.82
2023-03-22T00:51:14.102Z,7.79
2023-03-22T00:54:26.510Z,7.68
2023-03-22T00:57:38.758Z,7.59
2023-03-22T01:00:51.209Z,7.53
2023-03-22T01:04:05.252Z,7.47
2023-03-22T01:07:18.145Z,7.49
2023-03-22T01:10:30.668Z,7.47
2023-03-22T01:13:45.687Z,7.45
2023-03-22T01:16:58.855Z,7.44
2023-03-22T01:20:14.803Z,7.48
2023-03-22T01:23:27.229Z,7.47
2023-03-22T01:26:39.143Z,7.48
2023-03-22T01:29:51.477Z,7.49
2023-03-22T01:33:03.648Z,7.46
2023-03-22T01:36:18.454Z,7.46
2023-03-22T01:39:32.446Z,7.45
2023-03-22T01:42:47.125Z,7.43
2023-03-22T01:46:02.373Z,7.38
2023-03-22T01:49:19.319Z,7.29
2023-03-22T01:52:32.129Z,7.25
2023-03-22T01:55:46.979Z,7.22
2023-03-22T01:59:02.372Z,7.22
2023-03-22T02:02:19.617Z,7.13
2023-03-22T02:05:34.388Z,7.01
2023-03-22T02:08:46.897Z,6.91
2023-03-22T02:12:06.988Z,6.77
2023-03-22T02:15:23.596Z,6.72
2023-03-22T02:19:10.608Z,6.70
2023-03-22T02:22:57.649Z,6.74
2023-03-22T02:27:02.933Z,6.75
2023-03-22T02:30:49.905Z,6.79
2023-03-22T02:34:55.161Z,6.83
2023-03-22T02:38:58.255Z,6.80
2023-03-22T02:42:31.873Z,6.66
2023-03-22T02:45:49.441Z,6.57
2023-03-22T02:49:08.270Z,6.43
2023-03-22T02:52:25.191Z,6.37
2023-03-22T02:55:42.452Z,6.39
2023-03-22T02:58:55.745Z,6.27
2023-03-22T03:02:09.396Z,6.16
2023-03-22T03:05:24.336Z,6.01
2023-03-22T03:08:39.421Z,5.88
2023-03-22T03:11:54.152Z,5.73
2023-03-22T03:15:07.988Z,5.58
2023-03-22T03:18:32.340Z,5.48
2023-03-22T03:21:51.317Z,5.39
2023-03-22T03:25:09.023Z,5.42
2023-03-22T03:28:30.452Z,5.37
2023-03-22T03:31:48.811Z,5.18
2023-03-22T03:35:06.071Z,5.07
2023-03-22T03:38:23.655Z,4.96
2023-03-22T03:41:38.419Z,4.96
2023-03-22T03:44:51.344Z,4.81
2023-03-22T03:48:08.882Z,4.76
2023-03-22T03:51:22.933Z,4.84
2023-03-22T03:54:35.133Z,4.85
2023-03-22T03:57:48.376Z,4.73
2023-03-22T04:01:00.463Z,4.68
2023-03-22T04:04:26.707Z,4.66
2023-03-22T04:07:43.932Z,4.78
2023-03-22T04:10:58.695Z,4.73
2023-03-22T04:14:12.134Z,4.73
2023-03-22T04:17:24.447Z,4.85
2023-03-22T04:20:39.297Z,4.79
2023-03-22T04:23:51.678Z,4.82
2023-03-22T04:27:03.892Z,4.72
2023-03-22T04:30:22.347Z,4.68
2023-03-22T04:33:47.601Z,4.70
2023-03-22T04:37:08.199Z,4.67
2023-03-22T04:40:27.268Z,4.69
2023-03-22T04:43:39.361Z,4.65
2023-03-22T04:46:53.532Z,4.53
2023-03-22T04:50:05.821Z,4.43
2023-03-22T04:53:19.778Z,4.65
2023-03-22T04:56:32.168Z,4.75
2023-03-22T04:59:44.817Z,4.60
2023-03-22T05:02:56.939Z,4.65
2023-03-22T05:06:14.290Z,4.80
2023-03-22T05:09:28.725Z,4.88
2023-03-22T05:12:41.881Z,4.90
2023-03-22T05:16:00.069Z,4.94
2023-03-22T05:19:14.853Z,4.91
2023-03-22T05:22:29.521Z,4.88
2023-03-22T05:25:45.307Z,4.90
2023-03-22T05:29:03.383Z,4.94
2023-03-22T05:32:18.503Z,4.96
2023-03-22T05:35:32.164Z,5.07
2023-03-22T05:38:46.660Z,4.85
2023-03-22T05:41:59.346Z,4.95
2023-03-22T05:45:15.017Z,4.96
2023-03-22T05:48:26.670Z,5.17
2023-03-22T05:51:40.767Z,5.18
2023-03-22T05:54:53.147Z,5.23
2023-03-22T05:58:05.654Z,5.28
2023-03-22T06:01:21.678Z,5.39
2023-03-22T06:04:33.653Z,5.53
2023-03-22T06:07:51.072Z,5.61
2023-03-22T06:11:05.278Z,5.67
2023-03-22T06:14:17.730Z,5.77
2023-03-22T06:17:44.418Z,5.74
2023-03-22T06:20:58.387Z,5.88
2023-03-22T06:24:11.848Z,5.88
2023-03-22T06:27:25.569Z,5.88
2023-03-22T06:30:38.469Z,5.97
2023-03-22T06:34:05.955Z,6.26
2023-03-22T06:37:20.328Z,6.34
2023-03-22T06:40:35.992Z,6.49
2023-03-22T06:43:48.251Z,6.59
2023-03-22T06:47:19.999Z,6.62
2023-03-22T06:50:40.286Z,6.64
2023-03-22T06:53:55.528Z,6.70
2023-03-22T06:57:08.286Z,6.85
2023-03-22T07:00:24.351Z,6.90
2023-03-22T07:03:36.404Z,6.90
2023-03-22T07:06:50.610Z,6.99
2023-03-22T07:10:03.523Z,7.03
2023-03-22T07:13:16.968Z,7.07
2023-03-22T07:16:30.389Z,7.13
2023-03-22T07:19:45.157Z,7.16
2023-03-22T07:22:59.017Z,7.23
2023-03-22T07:26:13.483Z,7.29
2023-03-22T07:29:27.010Z,7.32
2023-03-22T07:32:39.848Z,7.37
2023-03-22T07:35:53.969Z,7.45
2023-03-22T07:39:06.300Z,7.55
2023-03-22T07:42:20.491Z,7.75
2023-03-22T07:45:52.631Z,7.78
2023-03-22T07:49:23.265Z,7.99
2023-03-22T07:52:50.409Z,8.24
2023-03-22T07:56:03.389Z,9.44
2023-03-22T07:59:16.652Z,10.53
2023-03-22T08:02:30.519Z,11.38
2023-03-22T08:05:46.381Z,11.42
2023-03-22T08:08:59.748Z,11.28
2023-03-22T08:12:12.500Z,11.94
2023-03-22T08:15:25.561Z,12.34
2023-03-22T08:18:38.441Z,12.42
2023-03-22T08:21:51.651Z,12.59
2023-03-22T08:25:09.950Z,12.53
2023-03-22T08:28:23.568Z,13.38
2023-03-22T08:31:36.179Z,13.64
2023-03-22T08:34:49.518Z,13.10
2023-03-22T08:38:02.941Z,12.77
2023-03-22T08:41:17.158Z,12.65
2023-03-22T08:44:29.394Z,12.50
2023-03-22T08:47:41.843Z,12.43
2023-03-22T08:50:54.663Z,12.63
2023-03-22T08:54:10.499Z,12.43
2023-03-22T08:57:38.936Z,12.34
2023-03-22T09:00:53.703Z,12.63
2023-03-22T09:04:11.569Z,12.97
2023-03-22T09:07:24.626Z,12.85
2023-03-22T09:10:39.085Z,12.84
2023-03-22T09:13:53.010Z,12.87
2023-03-22T09:17:07.384Z,12.78
2023-03-22T09:20:22.291Z,12.98
2023-03-22T09:23:35.625Z,12.93
2023-03-22T09:26:48.142Z,12.70
2023-03-22T09:30:02.499Z,12.55
2023-03-22T09:33:17.486Z,12.46
2023-03-22T09:36:32.462Z,12.27
2023-03-22T09:39:45.429Z,12.14
2023-03-22T09:43:02.216Z,12.15
2023-03-22T09:46:20.633Z,12.24
2023-03-22T09:49:52.528Z,12.28
2023-03-22T09:52:53.440Z,12.33
2023-03-22T09:56:11.755Z,12.35
2023-03-22T09:59:30.153Z,12.47
2023-03-22T10:02:53.617Z,12.67
2023-03-22T10:06:11.574Z,13.05
2023-03-22T10:09:29.667Z,13.49
2023-03-22T10:12:48.002Z,13.96
2023-03-22T10:16:03.266Z,14.25
2023-03-22T10:19:23.996Z,14.36
2023-03-22T10:22:40.244Z,14.39
2023-03-22T10:25:54.144Z,14.52
2023-03-22T10:29:09.578Z,14.57
2023-03-22T10:32:26.370Z,14.50
2023-03-22T10:35:39.607Z,14.62
2023-03-22T10:38:56.939Z,14.56
2023-03-22T10:42:15.446Z,14.70
2023-03-22T10:45:31.143Z,14.90
2023-03-22T10:48:48.111Z,15.10
2023-03-22T10:52:01.395Z,15.24
2023-03-22T10:55:18.210Z,15.22
2023-03-22T10:58:34.434Z,15.28
2023-03-22T11:01:51.437Z,15.15
2023-03-22T11:05:03.514Z,15.36
2023-03-22T11:08:21.267Z,15.49
2023-03-22T11:11:35.984Z,15.66
2023-03-22T11:14:51.454Z,15.75
2023-03-22T11:18:09.261Z,15.89
2023-03-22T11:21:23.625Z,16.33
2023-03-22T11:24:39.405Z,16.67
2023-03-22T11:28:00.664Z,16.88
2023-03-22T11:31:17.571Z,16.95
2023-03-22T11:34:30.794Z,16.61
2023-03-22T11:37:48.826Z,16.67
2023-03-22T11:41:06.525Z,16.82
2023-03-22T11:44:23.769Z,16.84
2023-03-22T11:47:41.689Z,16.74
2023-03-22T11:50:56.327Z,16.91
2023-03-22T11:54:15.903Z,17.01
2023-03-22T11:57:33.606Z,17.02
2023-03-22T12:00:46.567Z,17.31
2023-03-22T12:04:03.047Z,17.42
2023-03-22T12:07:23.853Z,17.64
2023-03-22T12:10:41.255Z,17.77
2023-03-22T12:13:59.190Z,17.87
2023-03-22T12:17:17.743Z,17.76
2023-03-22T12:20:39.624Z,17.88
2023-03-22T12:23:52.098Z,17.97
2023-03-22T12:27:08.800Z,18.09
2023-03-22T12:30:26.316Z,18.15
2023-03-22T12:33:42.406Z,18.21
2023-03-22T12:36:58.569Z,18.28
2023-03-22T12:40:18.529Z,18.35
2023-03-22T12:43:41.975Z,18.31
2023-03-22T12:47:00.001Z,18.29
2023-03-22T12:50:18.755Z,18.43
2023-03-22T12:53:39.438Z,18.87
2023-03-22T12:56:53.042Z,19.17
2023-03-22T13:00:13.748Z,19.10
2023-03-22T13:03:32.912Z,19.11
2023-03-22T13:07:14.629Z,19.23
2023-03-22T13:11:17.799Z,19.20
2023-03-22T13:15:03.644Z,19.12
2023-03-22T13:18:43.779Z,19.00
2023-03-22T13:22:03.166Z,19.28
2023-03-22T13:25:33.290Z,19.58
2023-03-22T13:28:47.238Z,19.23
2023-03-22T13:32:06.495Z,19.03
2023-03-22T13:35:31.758Z,18.81
2023-03-22T13:38:48.217Z,18.93
2023-03-22T13:42:18.446Z,19.05
2023-03-22T13:45:41.365Z,19.07
2023-03-22T13:49:21.667Z,19.22
2023-03-22T13:52:43.311Z,19.13
2023-03-22T13:56:07.904Z,19.15
2023-03-22T13:59:25.519Z,19.29
2023-03-22T14:02:41.893Z,19.34
2023-03-22T14:06:02.757Z,19.58
2023-03-22T14:09:24.516Z,19.51
2023-03-22T14:12:44.308Z,19.58
2023-03-22T14:16:00.223Z,19.52
2023-03-22T14:19:17.567Z,19.32
2023-03-22T14:48:42.707Z,18.44
2023-03-22T14:55:12.200Z,18.24
2023-03-22T14:58:26.186Z,18.17
2023-03-22T15:01:42.033Z,18.13
2023-03-22T15:04:54.943Z,18.13
2023-03-22T15:08:17.302Z,18.10
2023-03-22T15:11:29.962Z,18.14
2023-03-22T15:14:43.396Z,18.19
2023-03-22T15:17:57.160Z,18.18
2023-03-22T15:21:14.265Z,18.18
2023-03-22T15:24:38.760Z,18.07
2023-03-22T15:27:51.694Z,18.03
2023-03-22T15:31:07.319Z,17.93
2023-03-22T15:34:27.263Z,17.82
2023-03-22T15:37:43.636Z,17.79
2023-03-22T15:40:56.347Z,17.60
2023-03-22T15:44:19.416Z,17.47
2023-03-22T15:47:32.105Z,17.39
2023-03-22T15:50:49.971Z,17.28
2023-03-22T15:54:12.928Z,17.11
2023-03-22T15:57:33.558Z,16.99
2023-03-22T16:00:47.154Z,16.89
2023-03-22T16:04:03.713Z,16.81
2023-03-22T16:13:26.408Z,16.51
2023-03-22T16:19:39.766Z,16.38
2023-03-22T16:22:56.074Z,16.34
2023-03-22T16:26:08.571Z,16.24
2023-03-22T16:29:20.892Z,16.11
2023-03-22T16:32:35.215Z,16.13
2023-03-22T16:35:48.015Z,16.07
2023-03-22T16:39:00.338Z,16.02
2023-03-22T16:42:19.440Z,15.98
2023-03-22T16:45:34.660Z,15.87
2023-03-22T16:48:47.443Z,15.79
2023-03-22T16:51:59.800Z,15.74
2023-03-22T16:55:19.545Z,15.68
2023-03-22T16:58:32.043Z,15.56
2023-03-22T17:01:44.915Z,15.46
2023-03-22T17:04:57.321Z,15.35
2023-03-22T17:08:13.293Z,15.27
2023-03-22T17:11:30.138Z,15.19
2023-03-22T17:14:42.106Z,15.15
2023-03-22T17:17:54.968Z,15.12
2023-03-22T17:21:07.248Z,15.06
2023-03-22T17:24:19.833Z,14.99
2023-03-22T17:27:32.109Z,14.76
2023-03-22T17:30:44.866Z,14.58
2023-03-22T17:33:58.115Z,14.50
2023-03-22T17:37:10.308Z,14.46
2023-03-22T17:43:38.328Z,14.42
2023-03-22T17:50:05.609Z,14.24
2023-03-22T17:53:40.543Z,14.16
2023-03-22T17:57:13.943Z,14.11
2023-03-22T17:59:48.822Z,14.03
2023-03-22T18:03:01.677Z,13.99
2023-03-22T18:06:16.424Z,13.95
2023-03-22T18:09:31.218Z,13.92
2023-03-22T18:12:46.387Z,13.89
2023-03-22T18:15:58.564Z,13.79
2023-03-22T18:19:11.161Z,13.74
2023-03-22T18:22:24.042Z,13.70
2023-03-22T18:25:41.792Z,13.66
2023-03-22T18:28:51.275Z,13.59
2023-03-22T18:32:12.188Z,13.52
2023-03-22T18:35:19.172Z,13.46
2023-03-22T18:39:16.849Z,13.46
2023-03-22T18:41:50.915Z,13.41
2023-03-22T18:45:04.050Z,13.38
2023-03-22T18:48:17.420Z,13.32
2023-03-22T18:51:31.793Z,13.27
2023-03-22T18:54:44.147Z,13.21
2023-03-22T18:57:56.726Z,13.17
2023-03-22T19:01:09.513Z,13.15
2023-03-22T19:04:21.864Z,13.15
2023-03-22T19:10:48.421Z,13.08
2023-03-22T19:14:51.079Z,13.04
2023-03-22T19:17:15.111Z,13.01
2023-03-22T19:20:35.110Z,12.98
2023-03-22T19:23:42.538Z,12.98
2023-03-22T19:27:07.180Z,12.95
2023-03-22T19:30:13.616Z,12.94
2023-03-22T19:33:39.812Z,12.92
2023-03-22T19:36:42.494Z,12.90
2023-03-22T19:40:45.171Z,12.89
2023-03-22T19:43:09.048Z,12.88
2023-03-22T19:46:21.637Z,12.87
2023-03-22T19:49:36.729Z,12.91
2023-03-22T19:52:49.153Z,12.94
2023-03-22T19:56:01.358Z,12.98
2023-03-22T19:59:16.913Z,13.00
2023-03-22T20:02:28.444Z,13.03
2023-03-22T20:05:49.486Z,13.03
2023-03-22T20:08:56.122Z,13.08
2023-03-22T20:12:08.870Z,13.10
2023-03-22T20:15:22.318Z,13.09
2023-03-22T20:18:36.305Z,13.07
2023-03-22T20:21:48.827Z,13.12
2023-03-22T20:25:01.226Z,13.13
2023-03-22T20:28:13.699Z,13.11
2023-03-22T20:31:27.589Z,13.16
2023-03-22T20:34:40.101Z,13.20
2023-03-22T20:37:52.705Z,13.22
2023-03-22T20:41:05.977Z,13.19
2023-03-22T20:44:18.725Z,13.17
2023-03-22T20:47:31.964Z,13.15
2023-03-22T20:50:47.698Z,13.08
2023-03-22T20:54:00.987Z,13.01
2023-03-22T20:57:13.949Z,12.91
2023-03-22T21:00:27.387Z,12.88
2023-03-22T21:03:42.013Z,12.86
2023-03-22T21:06:54.776Z,12.85
2023-03-22T21:10:08.740Z,12.82
2023-03-22T21:13:22.204Z,12.79
2023-03-22T21:16:34.961Z,12.73
2023-03-22T21:19:49.114Z,12.68
2023-03-22T21:23:02.327Z,12.65
2023-03-22T21:26:18.349Z,12.61
2023-03-22T21:29:31.102Z,12.56
2023-03-22T21:32:47.845Z,12.51
2023-03-22T21:36:01.088Z,12.45
2023-03-22T21:39:13.692Z,12.42
2023-03-22T21:42:26.830Z,12.34
2023-03-22T21:45:39.202Z,12.30
2023-03-22T21:48:54.224Z,12.24
2023-03-22T21:52:07.800Z,12.18
2023-03-22T21:55:20.731Z,12.15
2023-03-22T21:58:33.520Z,12.09
2023-03-22T22:01:47.464Z,12.08
2023-03-22T22:05:00.152Z,12.07
2023-03-22T22:08:13.635Z,12.08
2023-03-22T22:11:27.139Z,12.05
2023-03-22T22:14:39.510Z,12.03
2023-03-22T22:17:52.245Z,12.03
2023-03-22T22:21:09.199Z,11.99
2023-03-22T22:24:21.547Z,11.96
2023-03-22T22:27:34.598Z,11.89
2023-03-22T22:30:46.811Z,11.83
2023-03-22T22:34:00.771Z,11.79
2023-03-22T22:37:13.054Z,11.78
2023-03-22T22:40:25.920Z,11.71
2023-03-22T22:43:38.539Z,11.65
2023-03-22T22:46:50.772Z,11.66
2023-03-22T22:50:04.204Z,11.66
2023-03-22T22:53:16.705Z,11.67
2023-03-22T22:56:30.092Z,11.63
2023-03-22T22:59:42.497Z,11.60
2023-03-22T23:02:54.755Z,11.56
2023-03-22T23:06:09.215Z,11.54
2023-03-22T23:09:21.933Z,11.52
2023-03-22T23:12:34.590Z,11.52
2023-03-22T23:15:50.094Z,11.54
2023-03-22T23:19:03.053Z,11.52
2023-03-22T23:22:15.359Z,11.52
2023-03-22T23:25:28.394Z,11.55
2023-03-22T23:28:42.957Z,11.54
2023-03-22T23:31:55.184Z,11.53
2023-03-22T23:35:08.948Z,11.52
2023-03-22T23:38:21.513Z,11.52
2023-03-22T23:41:37.240Z,11.48
2023-03-22T23:44:50.176Z,11.49
2023-03-22T23:48:03.146Z,11.51
2023-03-22T23:51:17.406Z,11.52
2023-03-22T23:54:29.439Z,11.49
2023-03-22T23:57:42.330Z,11.45
